sensor_id;sensor_type;location;lat;lon;timestamp;pressure;altitude;pressure_sealevel;temperature;humidity
55068;BME280;40965;52.368;9.712;2023-01-25T00:00:29;103095.94;;;-0.41;95.56
55068;BME280;40965;52.368;9.712;2023-01-25T00:02:56;103080.50;;;-0.41;96.16
55068;BME280;40965;52.368;9.712;2023-01-25T00:05:22;103069.28;;;-0.42;95.46
55068;BME280;40965;52.368;9.712;2023-01-25T00:07:49;103072.53;;;-0.44;95.93
55068;BME280;40965;52.368;9.712;2023-01-25T00:10:15;103071.44;;;-0.48;95.86
55068;BME280;40965;52.368;9.712;2023-01-25T00:12:42;103066.28;;;-0.48;96.36
55068;BME280;40965;52.368;9.712;2023-01-25T00:15:09;103064.50;;;-0.49;96.03
55068;BME280;40965;52.368;9.712;2023-01-25T00:17:35;103057.53;;;-0.50;95.68
55068;BME280;40965;52.368;9.712;2023-01-25T00:20:02;103064.94;;;-0.55;96.53
55068;BME280;40965;52.368;9.712;2023-01-25T00:22:29;103052.47;;;-0.60;96.08
55068;BME280;40965;52.368;9.712;2023-01-25T00:24:55;103053.63;;;-0.57;96.38
55068;BME280;40965;52.368;9.712;2023-01-25T00:27:28;103052.94;;;-0.54;96.14
55068;BME280;40965;52.368;9.712;2023-01-25T00:29:54;103056.66;;;-0.51;95.92
55068;BME280;40965;52.368;9.712;2023-01-25T00:34:49;103048.69;;;-0.54;95.46
55068;BME280;40965;52.368;9.712;2023-01-25T00:37:22;103049.59;;;-0.53;95.96
55068;BME280;40965;52.368;9.712;2023-01-25T00:39:51;103042.78;;;-0.53;96.03
55068;BME280;40965;52.368;9.712;2023-01-25T00:42:18;103043.69;;;-0.52;95.90
55068;BME280;40965;52.368;9.712;2023-01-25T00:44:46;103044.34;;;-0.55;95.57
55068;BME280;40965;52.368;9.712;2023-01-25T00:47:14;103040.53;;;-0.60;96.34
55068;BME280;40965;52.368;9.712;2023-01-25T00:49:42;103039.72;;;-0.59;96.57
55068;BME280;40965;52.368;9.712;2023-01-25T00:52:10;103038.94;;;-0.58;96.77
55068;BME280;40965;52.368;9.712;2023-01-25T00:54:36;103039.19;;;-0.55;96.63
55068;BME280;40965;52.368;9.712;2023-01-25T00:57:03;103029.56;;;-0.57;96.51
55068;BME280;40965;52.368;9.712;2023-01-25T00:59:31;103031.91;;;-0.60;96.74
55068;BME280;40965;52.368;9.712;2023-01-25T01:01:58;103032.22;;;-0.68;97.29
55068;BME280;40965;52.368;9.712;2023-01-25T01:04:25;103021.84;;;-0.69;97.21
55068;BME280;40965;52.368;9.712;2023-01-25T01:06:52;103027.88;;;-0.69;97.95
55068;BME280;40965;52.368;9.712;2023-01-25T01:09:21;103033.78;;;-0.70;97.70
55068;BME280;40965;52.368;9.712;2023-01-25T01:11:48;103028.41;;;-0.73;97.66
55068;BME280;40965;52.368;9.712;2023-01-25T01:14:14;103026.50;;;-0.75;98.04
55068;BME280;40965;52.368;9.712;2023-01-25T01:16:41;103027.94;;;-0.79;97.71
55068;BME280;40965;52.368;9.712;2023-01-25T01:19:08;103031.94;;;-0.82;98.39
55068;BME280;40965;52.368;9.712;2023-01-25T01:21:34;103035.44;;;-0.82;98.64
55068;BME280;40965;52.368;9.712;2023-01-25T01:24:01;103031.19;;;-0.81;98.63
55068;BME280;40965;52.368;9.712;2023-01-25T01:26:27;103032.22;;;-0.79;99.56
55068;BME280;40965;52.368;9.712;2023-01-25T01:28:54;103027.28;;;-0.76;99.02
55068;BME280;40965;52.368;9.712;2023-01-25T01:31:22;103025.19;;;-0.70;99.02
55068;BME280;40965;52.368;9.712;2023-01-25T01:33:54;103027.75;;;-0.70;98.70
55068;BME280;40965;52.368;9.712;2023-01-25T01:36:24;103020.91;;;-0.70;98.89
55068;BME280;40965;52.368;9.712;2023-01-25T01:38:52;103021.03;;;-0.68;98.77
55068;BME280;40965;52.368;9.712;2023-01-25T01:41:19;103011.41;;;-0.71;99.46
55068;BME280;40965;52.368;9.712;2023-01-25T01:43:46;103003.56;;;-0.72;99.44
55068;BME280;40965;52.368;9.712;2023-01-25T01:46:21;103006.59;;;-0.78;99.44
55068;BME280;40965;52.368;9.712;2023-01-25T01:48:55;102996.78;;;-0.72;100.00
55068;BME280;40965;52.368;9.712;2023-01-25T01:51:43;103000.53;;;-0.78;99.67
55068;BME280;40965;52.368;9.712;2023-01-25T01:54:20;102995.19;;;-0.81;100.00
55068;BME280;40965;52.368;9.712;2023-01-25T01:57:04;102999.75;;;-0.77;100.00
55068;BME280;40965;52.368;9.712;2023-01-25T01:59:41;102987.28;;;-0.73;100.00
55068;BME280;40965;52.368;9.712;2023-01-25T02:02:12;102984.34;;;-0.65;100.00
55068;BME280;40965;52.368;9.712;2023-01-25T02:04:41;102980.78;;;-0.68;100.00
55068;BME280;40965;52.368;9.712;2023-01-25T02:07:15;102977.75;;;-0.74;100.00
55068;BME280;40965;52.368;9.712;2023-01-25T02:09:43;102979.28;;;-0.76;100.00
55068;BME280;40965;52.368;9.712;2023-01-25T02:12:13;102982.53;;;-0.78;100.00
55068;BME280;40965;52.368;9.712;2023-01-25T02:14:46;102984.88;;;-0.81;100.00
55068;BME280;40965;52.368;9.712;2023-01-25T02:17:14;102982.88;;;-0.86;100.00
55068;BME280;40965;52.368;9.712;2023-01-25T02:22:50;102985.09;;;-0.78;100.00
55068;BME280;40965;52.368;9.712;2023-01-25T02:25:25;102983.25;;;-0.69;100.00
55068;BME280;40965;52.368;9.712;2023-01-25T02:27:56;102981.78;;;-0.65;100.00
55068;BME280;40965;52.368;9.712;2023-01-25T02:30:26;102985.69;;;-0.59;100.00
55068;BME280;40965;52.368;9.712;2023-01-25T02:32:53;102987.84;;;-0.65;100.00
55068;BME280;40965;52.368;9.712;2023-01-25T02:35:22;102987.69;;;-0.67;100.00
55068;BME280;40965;52.368;9.712;2023-01-25T02:37:50;102978.31;;;-0.66;100.00
55068;BME280;40965;52.368;9.712;2023-01-25T02:40:17;102982.13;;;-0.61;100.00
55068;BME280;40965;52.368;9.712;2023-01-25T02:42:44;102973.75;;;-0.58;100.00
55068;BME280;40965;52.368;9.712;2023-01-25T02:45:15;102977.00;;;-0.61;100.00
55068;BME280;40965;52.368;9.712;2023-01-25T02:47:42;102971.50;;;-0.65;100.00
55068;BME280;40965;52.368;9.712;2023-01-25T02:50:09;102968.81;;;-0.67;100.00
55068;BME280;40965;52.368;9.712;2023-01-25T02:52:36;102968.16;;;-0.64;100.00
55068;BME280;40965;52.368;9.712;2023-01-25T02:55:03;102965.47;;;-0.66;100.00
55068;BME280;40965;52.368;9.712;2023-01-25T02:57:29;102961.88;;;-0.68;100.00
55068;BME280;40965;52.368;9.712;2023-01-25T02:59:56;102953.28;;;-0.69;100.00
55068;BME280;40965;52.368;9.712;2023-01-25T03:02:22;102947.56;;;-0.76;100.00
55068;BME280;40965;52.368;9.712;2023-01-25T03:04:49;102941.94;;;-0.82;100.00
55068;BME280;40965;52.368;9.712;2023-01-25T03:07:16;102936.59;;;-0.86;100.00
55068;BME280;40965;52.368;9.712;2023-01-25T03:09:42;102935.81;;;-0.85;100.00
55068;BME280;40965;52.368;9.712;2023-01-25T03:12:09;102934.34;;;-0.81;100.00
55068;BME280;40965;52.368;9.712;2023-01-25T03:14:35;102925.63;;;-0.83;100.00
55068;BME280;40965;52.368;9.712;2023-01-25T03:17:03;102935.38;;;-0.79;100.00
55068;BME280;40965;52.368;9.712;2023-01-25T03:19:29;102929.19;;;-0.81;100.00
55068;BME280;40965;52.368;9.712;2023-01-25T03:21:56;102927.84;;;-0.88;100.00
55068;BME280;40965;52.368;9.712;2023-01-25T03:24:23;102922.72;;;-0.88;100.00
55068;BME280;40965;52.368;9.712;2023-01-25T03:26:49;102920.25;;;-0.86;100.00
55068;BME280;40965;52.368;9.712;2023-01-25T03:29:33;102929.28;;;-0.91;100.00
55068;BME280;40965;52.368;9.712;2023-01-25T03:32:00;102927.41;;;-0.94;100.00
55068;BME280;40965;52.368;9.712;2023-01-25T03:34:26;102921.81;;;-1.00;100.00
55068;BME280;40965;52.368;9.712;2023-01-25T03:36:53;102916.56;;;-1.02;100.00
55068;BME280;40965;52.368;9.712;2023-01-25T03:39:19;102917.22;;;-1.04;100.00
55068;BME280;40965;52.368;9.712;2023-01-25T03:41:46;102919.91;;;-1.03;100.00
55068;BME280;40965;52.368;9.712;2023-01-25T03:44:13;102922.28;;;-0.94;100.00
55068;BME280;40965;52.368;9.712;2023-01-25T03:46:40;102917.47;;;-0.89;100.00
55068;BME280;40965;52.368;9.712;2023-01-25T03:49:07;102899.91;;;-0.95;100.00
55068;BME280;40965;52.368;9.712;2023-01-25T03:51:34;102908.59;;;-0.93;100.00
55068;BME280;40965;52.368;9.712;2023-01-25T03:54:01;102900.69;;;-0.96;100.00
55068;BME280;40965;52.368;9.712;2023-01-25T03:56:28;102896.09;;;-1.00;100.00
55068;BME280;40965;52.368;9.712;2023-01-25T03:58:54;102890.03;;;-1.01;100.00
55068;BME280;40965;52.368;9.712;2023-01-25T04:01:21;102893.53;;;-1.00;100.00
55068;BME280;40965;52.368;9.712;2023-01-25T04:03:47;102890.41;;;-0.96;100.00
55068;BME280;40965;52.368;9.712;2023-01-25T04:06:14;102892.41;;;-0.92;100.00
55068;BME280;40965;52.368;9.712;2023-01-25T04:08:40;102895.75;;;-0.93;100.00
55068;BME280;40965;52.368;9.712;2023-01-25T04:11:09;102893.44;;;-0.90;100.00
55068;BME280;40965;52.368;9.712;2023-01-25T04:13:36;102888.84;;;-0.94;100.00
55068;BME280;40965;52.368;9.712;2023-01-25T04:16:05;102885.25;;;-0.96;100.00
55068;BME280;40965;52.368;9.712;2023-01-25T04:18:33;102878.66;;;-0.92;100.00
55068;BME280;40965;52.368;9.712;2023-01-25T04:20:59;102879.25;;;-0.85;100.00
55068;BME280;40965;52.368;9.712;2023-01-25T04:23:26;102871.16;;;-0.89;100.00
55068;BME280;40965;52.368;9.712;2023-01-25T04:26:04;102867.38;;;-0.94;100.00
55068;BME280;40965;52.368;9.712;2023-01-25T04:28:33;102865.81;;;-0.92;100.00
55068;BME280;40965;52.368;9.712;2023-01-25T04:31:01;102863.00;;;-0.95;100.00
55068;BME280;40965;52.368;9.712;2023-01-25T04:33:31;102858.78;;;-0.95;100.00
55068;BME280;40965;52.368;9.712;2023-01-25T04:36:01;102855.63;;;-0.91;100.00
55068;BME280;40965;52.368;9.712;2023-01-25T04:38:28;102857.53;;;-0.88;100.00
55068;BME280;40965;52.368;9.712;2023-01-25T04:40:54;102861.00;;;-0.88;100.00
55068;BME280;40965;52.368;9.712;2023-01-25T04:43:21;102858.41;;;-0.88;100.00
55068;BME280;40965;52.368;9.712;2023-01-25T04:45:51;102851.28;;;-0.92;100.00
55068;BME280;40965;52.368;9.712;2023-01-25T04:48:25;102855.63;;;-0.91;100.00
55068;BME280;40965;52.368;9.712;2023-01-25T04:50:52;102858.53;;;-0.86;100.00
55068;BME280;40965;52.368;9.712;2023-01-25T04:53:19;102857.09;;;-0.82;100.00
55068;BME280;40965;52.368;9.712;2023-01-25T04:55:46;102848.81;;;-0.78;100.00
55068;BME280;40965;52.368;9.712;2023-01-25T04:58:13;102848.81;;;-0.78;100.00
55068;BME280;40965;52.368;9.712;2023-01-25T05:00:44;102848.69;;;-0.80;100.00
55068;BME280;40965;52.368;9.712;2023-01-25T05:03:17;102840.78;;;-0.83;100.00
55068;BME280;40965;52.368;9.712;2023-01-25T05:05:48;102844.78;;;-0.87;100.00
55068;BME280;40965;52.368;9.712;2023-01-25T05:08:17;102843.44;;;-0.81;100.00
55068;BME280;40965;52.368;9.712;2023-01-25T05:10:46;102844.88;;;-0.73;100.00
55068;BME280;40965;52.368;9.712;2023-01-25T05:13:13;102838.50;;;-0.67;100.00
55068;BME280;40965;52.368;9.712;2023-01-25T05:15:43;102843.44;;;-0.70;100.00
55068;BME280;40965;52.368;9.712;2023-01-25T05:18:11;102840.41;;;-0.76;100.00
55068;BME280;40965;52.368;9.712;2023-01-25T05:20:38;102837.06;;;-0.75;100.00
55068;BME280;40965;52.368;9.712;2023-01-25T05:23:07;102832.84;;;-0.74;100.00
55068;BME280;40965;52.368;9.712;2023-01-25T05:25:41;102827.03;;;-0.72;100.00
55068;BME280;40965;52.368;9.712;2023-01-25T05:28:26;102833.16;;;-0.70;100.00
55068;BME280;40965;52.368;9.712;2023-01-25T05:30:56;102837.72;;;-0.65;100.00
55068;BME280;40965;52.368;9.712;2023-01-25T05:33:24;102830.25;;;-0.62;100.00
55068;BME280;40965;52.368;9.712;2023-01-25T05:35:54;102824.09;;;-0.64;100.00
55068;BME280;40965;52.368;9.712;2023-01-25T05:38:23;102813.91;;;-0.75;100.00
55068;BME280;40965;52.368;9.712;2023-01-25T05:41:04;102822.00;;;-0.82;100.00
55068;BME280;40965;52.368;9.712;2023-01-25T05:46:49;102820.75;;;-0.87;100.00
55068;BME280;40965;52.368;9.712;2023-01-25T05:49:28;102816.03;;;-0.81;100.00
55068;BME280;40965;52.368;9.712;2023-01-25T05:52:16;102813.81;;;-0.76;100.00
55068;BME280;40965;52.368;9.712;2023-01-25T05:54:42;102819.41;;;-0.70;100.00
55068;BME280;40965;52.368;9.712;2023-01-25T05:57:38;102813.81;;;-0.64;100.00
55068;BME280;40965;52.368;9.712;2023-01-25T06:00:28;102815.81;;;-0.60;100.00
55068;BME280;40965;52.368;9.712;2023-01-25T06:03:01;102810.66;;;-0.60;100.00
55068;BME280;40965;52.368;9.712;2023-01-25T06:05:39;102801.97;;;-0.62;100.00
55068;BME280;40965;52.368;9.712;2023-01-25T06:08:14;102812.25;;;-0.62;100.00
55068;BME280;40965;52.368;9.712;2023-01-25T06:10:41;102805.53;;;-0.60;100.00
55068;BME280;40965;52.368;9.712;2023-01-25T06:13:12;102797.13;;;-0.58;100.00
55068;BME280;40965;52.368;9.712;2023-01-25T06:15:57;102796.44;;;-0.55;100.00
55068;BME280;40965;52.368;9.712;2023-01-25T06:18:25;102800.03;;;-0.53;100.00
55068;BME280;40965;52.368;9.712;2023-01-25T06:20:55;102794.78;;;-0.55;100.00
55068;BME280;40965;52.368;9.712;2023-01-25T06:23:58;102791.19;;;-0.57;100.00
55068;BME280;40965;52.368;9.712;2023-01-25T06:26:33;102788.06;;;-0.53;100.00
55068;BME280;40965;52.368;9.712;2023-01-25T06:29:23;102788.44;;;-0.60;100.00
55068;BME280;40965;52.368;9.712;2023-01-25T06:31:58;102789.09;;;-0.62;100.00
55068;BME280;40965;52.368;9.712;2023-01-25T06:34:27;102781.91;;;-0.67;100.00
55068;BME280;40965;52.368;9.712;2023-01-25T06:36:54;102779.91;;;-0.71;100.00
55068;BME280;40965;52.368;9.712;2023-01-25T06:39:21;102791.00;;;-0.72;100.00
55068;BME280;40965;52.368;9.712;2023-01-25T06:41:47;102787.31;;;-0.75;100.00
55068;BME280;40965;52.368;9.712;2023-01-25T06:44:14;102793.91;;;-0.79;100.00
55068;BME280;40965;52.368;9.712;2023-01-25T06:46:42;102792.47;;;-0.75;100.00
55068;BME280;40965;52.368;9.712;2023-01-25T06:49:09;102799.16;;;-0.77;100.00
55068;BME280;40965;52.368;9.712;2023-01-25T06:51:36;102785.19;;;-0.81;100.00
55068;BME280;40965;52.368;9.712;2023-01-25T06:54:02;102787.53;;;-0.84;100.00
55068;BME280;40965;52.368;9.712;2023-01-25T06:56:29;102797.06;;;-0.83;100.00
55068;BME280;40965;52.368;9.712;2023-01-25T06:58:56;102793.72;;;-0.82;100.00
55068;BME280;40965;52.368;9.712;2023-01-25T07:01:23;102803.44;;;-0.78;100.00
55068;BME280;40965;52.368;9.712;2023-01-25T07:03:56;102792.13;;;-0.80;100.00
55068;BME280;40965;52.368;9.712;2023-01-25T07:06:25;102788.22;;;-0.75;100.00
55068;BME280;40965;52.368;9.712;2023-01-25T07:08:52;102790.88;;;-0.73;100.00
55068;BME280;40965;52.368;9.712;2023-01-25T07:11:18;102793.34;;;-0.75;100.00
55068;BME280;40965;52.368;9.712;2023-01-25T07:13:46;102790.69;;;-0.76;100.00
55068;BME280;40965;52.368;9.712;2023-01-25T07:16:18;102792.78;;;-0.71;100.00
55068;BME280;40965;52.368;9.712;2023-01-25T07:18:46;102792.91;;;-0.69;100.00
55068;BME280;40965;52.368;9.712;2023-01-25T07:21:15;102786.66;;;-0.73;100.00
55068;BME280;40965;52.368;9.712;2023-01-25T07:23:44;102789.31;;;-0.71;100.00
55068;BME280;40965;52.368;9.712;2023-01-25T07:26:25;102776.66;;;-0.68;100.00
55068;BME280;40965;52.368;9.712;2023-01-25T07:28:52;102783.59;;;-0.67;100.00
55068;BME280;40965;52.368;9.712;2023-01-25T07:31:19;102786.19;;;-0.67;100.00
55068;BME280;40965;52.368;9.712;2023-01-25T07:33:48;102787.06;;;-0.67;100.00
55068;BME280;40965;52.368;9.712;2023-01-25T07:36:18;102790.09;;;-0.72;100.00
55068;BME280;40965;52.368;9.712;2023-01-25T07:38:46;102790.78;;;-0.75;100.00
55068;BME280;40965;52.368;9.712;2023-01-25T07:41:12;102797.25;;;-0.80;100.00
55068;BME280;40965;52.368;9.712;2023-01-25T07:43:40;102787.88;;;-0.79;100.00
55068;BME280;40965;52.368;9.712;2023-01-25T07:46:09;102787.75;;;-0.81;100.00
55068;BME280;40965;52.368;9.712;2023-01-25T07:48:38;102788.22;;;-0.87;100.00
55068;BME280;40965;52.368;9.712;2023-01-25T07:51:08;102781.28;;;-0.88;100.00
55068;BME280;40965;52.368;9.712;2023-01-25T07:53:48;102774.78;;;-0.82;100.00
55068;BME280;40965;52.368;9.712;2023-01-25T07:56:16;102771.34;;;-0.83;100.00
55068;BME280;40965;52.368;9.712;2023-01-25T07:58:44;102770.13;;;-0.88;100.00
55068;BME280;40965;52.368;9.712;2023-01-25T08:01:14;102766.09;;;-0.85;100.00
55068;BME280;40965;52.368;9.712;2023-01-25T08:03:42;102771.44;;;-0.81;100.00
55068;BME280;40965;52.368;9.712;2023-01-25T08:06:10;102767.63;;;-0.75;100.00
55068;BME280;40965;52.368;9.712;2023-01-25T08:08:43;102769.75;;;-0.69;100.00
55068;BME280;40965;52.368;9.712;2023-01-25T08:11:14;102770.97;;;-0.64;100.00
55068;BME280;40965;52.368;9.712;2023-01-25T08:13:51;102769.59;;;-0.59;100.00
55068;BME280;40965;52.368;9.712;2023-01-25T08:16:19;102772.50;;;-0.54;100.00
55068;BME280;40965;52.368;9.712;2023-01-25T08:18:49;102776.53;;;-0.58;100.00
55068;BME280;40965;52.368;9.712;2023-01-25T08:21:20;102771.19;;;-0.61;100.00
55068;BME280;40965;52.368;9.712;2023-01-25T08:23:48;102766.25;;;-0.58;100.00
55068;BME280;40965;52.368;9.712;2023-01-25T08:26:15;102770.03;;;-0.53;100.00
55068;BME280;40965;52.368;9.712;2023-01-25T08:28:42;102761.66;;;-0.50;100.00
55068;BME280;40965;52.368;9.712;2023-01-25T08:31:18;102768.16;;;-0.55;100.00
55068;BME280;40965;52.368;9.712;2023-01-25T08:33:47;102765.13;;;-0.61;100.00
55068;BME280;40965;52.368;9.712;2023-01-25T08:36:15;102757.56;;;-0.60;100.00
55068;BME280;40965;52.368;9.712;2023-01-25T08:38:45;102762.34;;;-0.64;100.00
55068;BME280;40965;52.368;9.712;2023-01-25T08:41:17;102755.53;;;-0.64;100.00
55068;BME280;40965;52.368;9.712;2023-01-25T08:43:45;102745.81;;;-0.68;100.00
55068;BME280;40965;52.368;9.712;2023-01-25T08:46:14;102747.50;;;-0.69;100.00
55068;BME280;40965;52.368;9.712;2023-01-25T08:48:41;102734.94;;;-0.64;100.00
55068;BME280;40965;52.368;9.712;2023-01-25T08:51:11;102736.75;;;-0.63;100.00
55068;BME280;40965;52.368;9.712;2023-01-25T08:53:39;102728.25;;;-0.62;100.00
55068;BME280;40965;52.368;9.712;2023-01-25T08:56:08;102730.56;;;-0.53;100.00
55068;BME280;40965;52.368;9.712;2023-01-25T08:58:38;102724.75;;;-0.51;100.00
55068;BME280;40965;52.368;9.712;2023-01-25T09:01:08;102725.72;;;-0.48;100.00
55068;BME280;40965;52.368;9.712;2023-01-25T09:03:38;102722.47;;;-0.46;100.00
55068;BME280;40965;52.368;9.712;2023-01-25T09:06:07;102727.53;;;-0.47;100.00
55068;BME280;40965;52.368;9.712;2023-01-25T09:08:34;102725.53;;;-0.52;100.00
55068;BME280;40965;52.368;9.712;2023-01-25T09:11:13;102723.97;;;-0.49;100.00
55068;BME280;40965;52.368;9.712;2023-01-25T09:13:41;102717.34;;;-0.46;100.00
55068;BME280;40965;52.368;9.712;2023-01-25T09:16:13;102719.13;;;-0.45;100.00
55068;BME280;40965;52.368;9.712;2023-01-25T09:18:43;102706.25;;;-0.45;100.00
55068;BME280;40965;52.368;9.712;2023-01-25T09:21:15;102712.63;;;-0.40;100.00
55068;BME280;40965;52.368;9.712;2023-01-25T09:23:42;102710.47;;;-0.34;100.00
55068;BME280;40965;52.368;9.712;2023-01-25T09:26:10;102713.06;;;-0.34;100.00
55068;BME280;40965;52.368;9.712;2023-01-25T09:28:39;102709.91;;;-0.29;100.00
55068;BME280;40965;52.368;9.712;2023-01-25T09:31:07;102703.28;;;-0.26;100.00
55068;BME280;40965;52.368;9.712;2023-01-25T09:33:37;102701.69;;;-0.24;100.00
55068;BME280;40965;52.368;9.712;2023-01-25T09:36:07;102698.13;;;-0.26;100.00
55068;BME280;40965;52.368;9.712;2023-01-25T09:38:34;102698.28;;;-0.36;100.00
55068;BME280;40965;52.368;9.712;2023-01-25T09:46:40;102695.72;;;-0.36;100.00
55068;BME280;40965;52.368;9.712;2023-01-25T09:52:08;102672.84;;;-0.31;100.00
55068;BME280;40965;52.368;9.712;2023-01-25T09:54:44;102674.75;;;-0.29;100.00
55068;BME280;40965;52.368;9.712;2023-01-25T09:57:16;102673.28;;;-0.25;100.00
55068;BME280;40965;52.368;9.712;2023-01-25T09:59:50;102672.50;;;-0.24;100.00
55068;BME280;40965;52.368;9.712;2023-01-25T10:05:18;102649.63;;;-0.20;100.00
55068;BME280;40965;52.368;9.712;2023-01-25T10:07:59;102657.66;;;-0.15;100.00
55068;BME280;40965;52.368;9.712;2023-01-25T10:10:41;102661.81;;;-0.17;100.00
55068;BME280;40965;52.368;9.712;2023-01-25T10:13:11;102653.22;;;-0.18;100.00
55068;BME280;40965;52.368;9.712;2023-01-25T10:15:42;102647.19;;;-0.18;100.00
55068;BME280;40965;52.368;9.712;2023-01-25T10:18:33;102642.59;;;-0.22;100.00
55068;BME280;40965;52.368;9.712;2023-01-25T10:21:15;102646.06;;;-0.22;100.00
55068;BME280;40965;52.368;9.712;2023-01-25T10:26:37;102633.31;;;-0.20;100.00
55068;BME280;40965;52.368;9.712;2023-01-25T10:29:18;102633.38;;;-0.32;100.00
55068;BME280;40965;52.368;9.712;2023-01-25T10:32:38;102632.94;;;-0.38;100.00
55068;BME280;40965;52.368;9.712;2023-01-25T10:34:47;102626.00;;;-0.39;100.00
55068;BME280;40965;52.368;9.712;2023-01-25T10:37:18;102616.91;;;-0.34;100.00
55068;BME280;40965;52.368;9.712;2023-01-25T10:39:58;102613.97;;;-0.40;100.00
55068;BME280;40965;52.368;9.712;2023-01-25T10:42:30;102603.84;;;-0.37;100.00
55068;BME280;40965;52.368;9.712;2023-01-25T10:44:58;102607.22;;;-0.38;100.00
55068;BME280;40965;52.368;9.712;2023-01-25T10:47:28;102605.31;;;-0.41;100.00
55068;BME280;40965;52.368;9.712;2023-01-25T10:49:57;102602.22;;;-0.48;100.00
55068;BME280;40965;52.368;9.712;2023-01-25T10:52:27;102596.91;;;-0.52;100.00
55068;BME280;40965;52.368;9.712;2023-01-25T10:57:49;102589.13;;;-0.65;100.00
55068;BME280;40965;52.368;9.712;2023-01-25T11:02:56;102585.72;;;-0.52;100.00
55068;BME280;40965;52.368;9.712;2023-01-25T11:05:34;102581.56;;;-0.50;100.00
55068;BME280;40965;52.368;9.712;2023-01-25T11:08:22;102573.66;;;-0.40;100.00
55068;BME280;40965;52.368;9.712;2023-01-25T11:10:49;102578.44;;;-0.32;100.00
55068;BME280;40965;52.368;9.712;2023-01-25T11:13:20;102583.00;;;-0.28;100.00
55068;BME280;40965;52.368;9.712;2023-01-25T11:15:51;102567.16;;;-0.21;100.00
55068;BME280;40965;52.368;9.712;2023-01-25T11:18:23;102555.97;;;-0.22;100.00
55068;BME280;40965;52.368;9.712;2023-01-25T11:21:13;102561.81;;;-0.24;100.00
55068;BME280;40965;52.368;9.712;2023-01-25T11:23:43;102558.84;;;-0.30;100.00
55068;BME280;40965;52.368;9.712;2023-01-25T11:26:26;102557.84;;;-0.32;100.00
55068;BME280;40965;52.368;9.712;2023-01-25T11:29:13;102550.91;;;-0.34;100.00
55068;BME280;40965;52.368;9.712;2023-01-25T11:31:49;102543.78;;;-0.38;100.00
55068;BME280;40965;52.368;9.712;2023-01-25T11:34:20;102540.63;;;-0.34;100.00
55068;BME280;40965;52.368;9.712;2023-01-25T11:46:05;102508.66;;;-0.24;100.00
55068;BME280;40965;52.368;9.712;2023-01-25T11:48:46;102500.94;;;-0.24;100.00
55068;BME280;40965;52.368;9.712;2023-01-25T11:51:37;102489.63;;;-0.39;100.00
55068;BME280;40965;52.368;9.712;2023-01-25T11:54:24;102497.94;;;-0.43;100.00
55068;BME280;40965;52.368;9.712;2023-01-25T11:57:16;102487.56;;;-0.45;100.00
55068;BME280;40965;52.368;9.712;2023-01-25T12:03:11;102471.16;;;-0.47;100.00
55068;BME280;40965;52.368;9.712;2023-01-25T12:06:08;102464.91;;;-0.51;100.00
55068;BME280;40965;52.368;9.712;2023-01-25T12:15:02;102437.38;;;-0.38;100.00
55068;BME280;40965;52.368;9.712;2023-01-25T12:17:56;102428.59;;;-0.28;100.00
55068;BME280;40965;52.368;9.712;2023-01-25T12:20:42;102423.03;;;-0.21;100.00
55068;BME280;40965;52.368;9.712;2023-01-25T12:23:52;102424.81;;;-0.20;100.00
55068;BME280;40965;52.368;9.712;2023-01-25T12:29:53;102417.78;;;-0.23;100.00
55068;BME280;40965;52.368;9.712;2023-01-25T12:32:32;102419.25;;;-0.26;100.00
55068;BME280;40965;52.368;9.712;2023-01-25T12:35:21;102403.03;;;-0.25;100.00
55068;BME280;40965;52.368;9.712;2023-01-25T12:37:56;102395.31;;;-0.25;100.00
55068;BME280;40965;52.368;9.712;2023-01-25T12:40:39;102378.31;;;-0.23;100.00
55068;BME280;40965;52.368;9.712;2023-01-25T12:43:20;102374.53;;;-0.28;100.00
55068;BME280;40965;52.368;9.712;2023-01-25T12:45:52;102375.84;;;-0.35;100.00
55068;BME280;40965;52.368;9.712;2023-01-25T12:48:31;102373.38;;;-0.34;100.00
55068;BME280;40965;52.368;9.712;2023-01-25T12:51:05;102365.72;;;-0.32;100.00
55068;BME280;40965;52.368;9.712;2023-01-25T12:53:39;102366.91;;;-0.27;100.00
55068;BME280;40965;52.368;9.712;2023-01-25T12:59:38;102340.75;;;-0.20;100.00
55068;BME280;40965;52.368;9.712;2023-01-25T13:02:48;102344.31;;;-0.18;100.00
55068;BME280;40965;52.368;9.712;2023-01-25T13:11:40;102319.47;;;-0.17;100.00
55068;BME280;40965;52.368;9.712;2023-01-25T13:16:46;102309.28;;;-0.29;100.00
55068;BME280;40965;52.368;9.712;2023-01-25T13:21:58;102317.03;;;-0.29;100.00
55068;BME280;40965;52.368;9.712;2023-01-25T13:24:33;102313.88;;;-0.25;100.00
55068;BME280;40965;52.368;9.712;2023-01-25T13:27:03;102300.63;;;-0.31;100.00
55068;BME280;40965;52.368;9.712;2023-01-25T13:32:51;102286.66;;;-0.35;100.00
55068;BME280;40965;52.368;9.712;2023-01-25T13:35:00;102288.66;;;-0.44;100.00
55068;BME280;40965;52.368;9.712;2023-01-25T13:37:29;102284.22;;;-0.46;100.00
55068;BME280;40965;52.368;9.712;2023-01-25T13:40:32;102284.13;;;-0.48;100.00
55068;BME280;40965;52.368;9.712;2023-01-25T13:43:05;102270.88;;;-0.54;100.00
55068;BME280;40965;52.368;9.712;2023-01-25T13:45:43;102267.44;;;-0.55;100.00
55068;BME280;40965;52.368;9.712;2023-01-25T13:48:17;102255.63;;;-0.51;100.00
55068;BME280;40965;52.368;9.712;2023-01-25T13:50:54;102260.97;;;-0.48;100.00
55068;BME280;40965;52.368;9.712;2023-01-25T13:53:24;102264.03;;;-0.40;100.00
55068;BME280;40965;52.368;9.712;2023-01-25T13:55:56;102264.28;;;-0.36;100.00
55068;BME280;40965;52.368;9.712;2023-01-25T13:58:34;102267.84;;;-0.34;100.00
55068;BME280;40965;52.368;9.712;2023-01-25T14:01:18;102265.19;;;-0.35;100.00
55068;BME280;40965;52.368;9.712;2023-01-25T14:03:59;102265.97;;;-0.36;100.00
55068;BME280;40965;52.368;9.712;2023-01-25T14:06:37;102261.00;;;-0.33;100.00
55068;BME280;40965;52.368;9.712;2023-01-25T14:09:11;102256.34;;;-0.25;100.00
55068;BME280;40965;52.368;9.712;2023-01-25T14:11:57;102248.00;;;-0.21;100.00